sensor_id;sensor_type;location;lat;lon;timestamp;temperature;humidity
19868;DHT22;10096;51.112;6.776;2023-07-29T00:00:48;20.30;1.00
19868;DHT22;10096;51.112;6.776;2023-07-29T00:03:15;20.30;1.00
19868;DHT22;10096;51.112;6.776;2023-07-29T00:05:43;20.50;99.90
19868;DHT22;10096;51.112;6.776;2023-07-29T00:08:13;20.30;1.00
19868;DHT22;10096;51.112;6.776;2023-07-29T00:10:44;20.40;1.00
19868;DHT22;10096;51.112;6.776;2023-07-29T00:13:11;20.60;42.70
19868;DHT22;10096;51.112;6.776;2023-07-29T00:15:38;20.50;99.90
19868;DHT22;10096;51.112;6.776;2023-07-29T00:18:05;20.40;1.00
19868;DHT22;10096;51.112;6.776;2023-07-29T00:20:32;20.40;1.00
19868;DHT22;10096;51.112;6.776;2023-07-29T00:22:59;20.40;1.00
19868;DHT22;10096;51.112;6.776;2023-07-29T00:25:27;20.40;99.90
19868;DHT22;10096;51.112;6.776;2023-07-29T00:27:56;20.40;67.00
19868;DHT22;10096;51.112;6.776;2023-07-29T00:30:23;20.40;99.90
19868;DHT22;10096;51.112;6.776;2023-07-29T00:32:51;20.60;99.90
19868;DHT22;10096;51.112;6.776;2023-07-29T00:35:18;20.40;1.00
19868;DHT22;10096;51.112;6.776;2023-07-29T00:37:45;20.30;1.00
19868;DHT22;10096;51.112;6.776;2023-07-29T00:40:15;20.20;99.90
19868;DHT22;10096;51.112;6.776;2023-07-29T00:42:42;20.10;1.00
19868;DHT22;10096;51.112;6.776;2023-07-29T00:45:11;20.10;1.00
19868;DHT22;10096;51.112;6.776;2023-07-29T00:47:39;20.00;99.90
19868;DHT22;10096;51.112;6.776;2023-07-29T00:50:07;20.00;99.90
19868;DHT22;10096;51.112;6.776;2023-07-29T00:52:34;20.00;1.00
19868;DHT22;10096;51.112;6.776;2023-07-29T00:55:01;19.90;99.90
19868;DHT22;10096;51.112;6.776;2023-07-29T00:57:30;19.90;1.00
19868;DHT22;10096;51.112;6.776;2023-07-29T01:00:00;19.90;99.90
19868;DHT22;10096;51.112;6.776;2023-07-29T01:02:30;20.10;1.00
19868;DHT22;10096;51.112;6.776;2023-07-29T01:04:58;19.70;99.90
19868;DHT22;10096;51.112;6.776;2023-07-29T01:07:31;19.70;1.00
19868;DHT22;10096;51.112;6.776;2023-07-29T01:10:02;19.70;1.00
19868;DHT22;10096;51.112;6.776;2023-07-29T01:12:37;19.70;99.90
19868;DHT22;10096;51.112;6.776;2023-07-29T01:15:11;19.90;99.90
19868;DHT22;10096;51.112;6.776;2023-07-29T01:17:43;19.70;1.00
19868;DHT22;10096;51.112;6.776;2023-07-29T01:20:15;19.70;99.90
19868;DHT22;10096;51.112;6.776;2023-07-29T01:22:42;20.00;99.90
19868;DHT22;10096;51.112;6.776;2023-07-29T01:25:10;19.90;99.90
19868;DHT22;10096;51.112;6.776;2023-07-29T01:27:37;19.70;99.90
19868;DHT22;10096;51.112;6.776;2023-07-29T01:30:05;19.80;1.00
19868;DHT22;10096;51.112;6.776;2023-07-29T01:32:41;19.70;1.00
19868;DHT22;10096;51.112;6.776;2023-07-29T01:35:21;19.80;99.90
19868;DHT22;10096;51.112;6.776;2023-07-29T01:37:52;19.80;99.90
19868;DHT22;10096;51.112;6.776;2023-07-29T01:40:22;19.80;1.00
19868;DHT22;10096;51.112;6.776;2023-07-29T01:42:50;19.90;1.00
19868;DHT22;10096;51.112;6.776;2023-07-29T01:45:18;19.90;99.90
19868;DHT22;10096;51.112;6.776;2023-07-29T01:47:45;19.90;99.90
19868;DHT22;10096;51.112;6.776;2023-07-29T01:50:12;19.90;1.00
19868;DHT22;10096;51.112;6.776;2023-07-29T01:52:39;19.90;99.90
19868;DHT22;10096;51.112;6.776;2023-07-29T01:55:06;20.00;99.90
19868;DHT22;10096;51.112;6.776;2023-07-29T01:57:35;19.90;99.90
19868;DHT22;10096;51.112;6.776;2023-07-29T02:00:03;20.10;1.00
19868;DHT22;10096;51.112;6.776;2023-07-29T02:02:30;19.90;1.00
19868;DHT22;10096;51.112;6.776;2023-07-29T02:04:57;20.00;1.00
19868;DHT22;10096;51.112;6.776;2023-07-29T02:07:24;20.00;99.90
19868;DHT22;10096;51.112;6.776;2023-07-29T02:09:52;20.00;99.90
19868;DHT22;10096;51.112;6.776;2023-07-29T02:12:19;20.10;1.00
19868;DHT22;10096;51.112;6.776;2023-07-29T02:14:48;19.90;1.00
19868;DHT22;10096;51.112;6.776;2023-07-29T02:17:15;20.00;1.00
19868;DHT22;10096;51.112;6.776;2023-07-29T02:19:42;19.80;99.90
19868;DHT22;10096;51.112;6.776;2023-07-29T02:22:12;19.80;99.90
19868;DHT22;10096;51.112;6.776;2023-07-29T02:24:40;20.00;1.00
19868;DHT22;10096;51.112;6.776;2023-07-29T02:27:08;20.10;51.70
19868;DHT22;10096;51.112;6.776;2023-07-29T02:29:35;19.90;1.00
19868;DHT22;10096;51.112;6.776;2023-07-29T02:32:03;20.10;99.90
19868;DHT22;10096;51.112;6.776;2023-07-29T02:34:31;20.10;64.80
19868;DHT22;10096;51.112;6.776;2023-07-29T02:36:57;20.20;43.30
19868;DHT22;10096;51.112;6.776;2023-07-29T02:39:28;20.10;1.00
19868;DHT22;10096;51.112;6.776;2023-07-29T02:41:56;20.10;99.90
19868;DHT22;10096;51.112;6.776;2023-07-29T02:44:24;20.10;63.10
19868;DHT22;10096;51.112;6.776;2023-07-29T02:46:51;20.10;1.00
19868;DHT22;10096;51.112;6.776;2023-07-29T02:49:22;20.20;99.90
19868;DHT22;10096;51.112;6.776;2023-07-29T02:51:50;20.20;99.90
19868;DHT22;10096;51.112;6.776;2023-07-29T02:54:17;20.20;99.90
19868;DHT22;10096;51.112;6.776;2023-07-29T02:56:44;20.30;92.60
19868;DHT22;10096;51.112;6.776;2023-07-29T02:59:12;20.10;1.00
19868;DHT22;10096;51.112;6.776;2023-07-29T03:01:39;20.20;99.90
19868;DHT22;10096;51.112;6.776;2023-07-29T03:04:06;20.10;99.90
19868;DHT22;10096;51.112;6.776;2023-07-29T03:06:35;20.20;1.00
19868;DHT22;10096;51.112;6.776;2023-07-29T03:09:02;20.10;1.00
19868;DHT22;10096;51.112;6.776;2023-07-29T03:11:30;20.10;99.90
19868;DHT22;10096;51.112;6.776;2023-07-29T03:13:57;20.00;99.90
19868;DHT22;10096;51.112;6.776;2023-07-29T03:16:26;20.20;99.90
19868;DHT22;10096;51.112;6.776;2023-07-29T03:18:56;20.00;1.00
19868;DHT22;10096;51.112;6.776;2023-07-29T03:21:24;20.00;1.00
19868;DHT22;10096;51.112;6.776;2023-07-29T03:23:53;19.90;1.00
19868;DHT22;10096;51.112;6.776;2023-07-29T03:26:20;19.80;1.00
19868;DHT22;10096;51.112;6.776;2023-07-29T03:28:47;19.90;1.00
19868;DHT22;10096;51.112;6.776;2023-07-29T03:31:13;20.20;99.90
19868;DHT22;10096;51.112;6.776;2023-07-29T03:33:40;20.00;99.90
19868;DHT22;10096;51.112;6.776;2023-07-29T03:36:08;19.90;99.90
19868;DHT22;10096;51.112;6.776;2023-07-29T03:38:35;20.00;99.90
19868;DHT22;10096;51.112;6.776;2023-07-29T03:41:07;19.90;99.90
19868;DHT22;10096;51.112;6.776;2023-07-29T03:43:34;20.30;1.00
19868;DHT22;10096;51.112;6.776;2023-07-29T03:46:01;20.10;34.60
19868;DHT22;10096;51.112;6.776;2023-07-29T03:48:28;20.30;99.90
19868;DHT22;10096;51.112;6.776;2023-07-29T03:50:54;20.10;99.90
19868;DHT22;10096;51.112;6.776;2023-07-29T03:53:21;20.00;27.70
19868;DHT22;10096;51.112;6.776;2023-07-29T03:55:49;20.10;99.90
19868;DHT22;10096;51.112;6.776;2023-07-29T03:58:19;20.00;99.90
19868;DHT22;10096;51.112;6.776;2023-07-29T04:00:46;20.10;1.00
19868;DHT22;10096;51.112;6.776;2023-07-29T04:03:20;20.00;1.00
19868;DHT22;10096;51.112;6.776;2023-07-29T04:05:47;20.00;1.00
19868;DHT22;10096;51.112;6.776;2023-07-29T04:08:14;20.10;1.00
19868;DHT22;10096;51.112;6.776;2023-07-29T04:10:41;19.90;1.00
19868;DHT22;10096;51.112;6.776;2023-07-29T04:13:08;19.80;1.00
19868;DHT22;10096;51.112;6.776;2023-07-29T04:15:37;19.90;99.90
19868;DHT22;10096;51.112;6.776;2023-07-29T04:18:04;19.80;1.00
19868;DHT22;10096;51.112;6.776;2023-07-29T04:20:31;19.70;1.00
19868;DHT22;10096;51.112;6.776;2023-07-29T04:22:59;19.60;1.00
19868;DHT22;10096;51.112;6.776;2023-07-29T04:25:29;19.60;1.00
19868;DHT22;10096;51.112;6.776;2023-07-29T04:27:56;19.60;99.90
19868;DHT22;10096;51.112;6.776;2023-07-29T04:30:24;19.60;1.00
19868;DHT22;10096;51.112;6.776;2023-07-29T04:32:52;19.70;99.90
19868;DHT22;10096;51.112;6.776;2023-07-29T04:35:19;19.60;99.90
19868;DHT22;10096;51.112;6.776;2023-07-29T04:37:46;19.90;99.90
19868;DHT22;10096;51.112;6.776;2023-07-29T04:40:14;19.80;1.00
19868;DHT22;10096;51.112;6.776;2023-07-29T04:42:41;19.70;1.00
19868;DHT22;10096;51.112;6.776;2023-07-29T04:45:08;19.60;99.90
19868;DHT22;10096;51.112;6.776;2023-07-29T04:47:40;19.70;1.00
19868;DHT22;10096;51.112;6.776;2023-07-29T04:50:11;19.70;99.90
19868;DHT22;10096;51.112;6.776;2023-07-29T04:52:38;19.80;1.00
19868;DHT22;10096;51.112;6.776;2023-07-29T04:55:08;19.80;1.00
19868;DHT22;10096;51.112;6.776;2023-07-29T04:57:35;19.90;1.00
19868;DHT22;10096;51.112;6.776;2023-07-29T05:00:03;20.10;51.60
19868;DHT22;10096;51.112;6.776;2023-07-29T05:02:32;20.10;99.90
19868;DHT22;10096;51.112;6.776;2023-07-29T05:04:59;20.10;99.90
19868;DHT22;10096;51.112;6.776;2023-07-29T05:07:28;20.20;1.00
19868;DHT22;10096;51.112;6.776;2023-07-29T05:09:55;20.20;1.00
19868;DHT22;10096;51.112;6.776;2023-07-29T05:12:22;20.20;99.90
19868;DHT22;10096;51.112;6.776;2023-07-29T05:14:49;20.20;83.80
19868;DHT22;10096;51.112;6.776;2023-07-29T05:17:16;20.10;1.00
19868;DHT22;10096;51.112;6.776;2023-07-29T05:19:43;20.20;1.00
19868;DHT22;10096;51.112;6.776;2023-07-29T05:22:13;20.30;99.90
19868;DHT22;10096;51.112;6.776;2023-07-29T05:24:44;20.30;1.00
19868;DHT22;10096;51.112;6.776;2023-07-29T05:27:11;20.40;83.50
19868;DHT22;10096;51.112;6.776;2023-07-29T05:29:41;20.40;1.00
19868;DHT22;10096;51.112;6.776;2023-07-29T05:32:08;20.30;99.90
19868;DHT22;10096;51.112;6.776;2023-07-29T05:34:35;20.30;99.90
19868;DHT22;10096;51.112;6.776;2023-07-29T05:37:03;20.30;99.90
19868;DHT22;10096;51.112;6.776;2023-07-29T05:39:31;20.30;99.90
19868;DHT22;10096;51.112;6.776;2023-07-29T05:42:00;20.30;99.90
19868;DHT22;10096;51.112;6.776;2023-07-29T05:44:29;20.30;99.90
19868;DHT22;10096;51.112;6.776;2023-07-29T05:46:56;20.30;99.90
19868;DHT22;10096;51.112;6.776;2023-07-29T05:49:23;20.00;99.90
19868;DHT22;10096;51.112;6.776;2023-07-29T05:51:50;20.30;99.90
19868;DHT22;10096;51.112;6.776;2023-07-29T05:54:18;20.30;1.00
19868;DHT22;10096;51.112;6.776;2023-07-29T05:56:46;20.20;1.00
19868;DHT22;10096;51.112;6.776;2023-07-29T05:59:14;20.40;1.00
19868;DHT22;10096;51.112;6.776;2023-07-29T06:01:41;20.50;1.00
19868;DHT22;10096;51.112;6.776;2023-07-29T06:04:08;20.30;99.90
19868;DHT22;10096;51.112;6.776;2023-07-29T06:06:35;20.40;99.90
19868;DHT22;10096;51.112;6.776;2023-07-29T06:09:02;20.30;99.90
19868;DHT22;10096;51.112;6.776;2023-07-29T06:11:29;20.30;99.90
19868;DHT22;10096;51.112;6.776;2023-07-29T06:13:56;20.40;56.80
19868;DHT22;10096;51.112;6.776;2023-07-29T06:16:25;20.50;1.00
19868;DHT22;10096;51.112;6.776;2023-07-29T06:18:52;20.40;1.00
19868;DHT22;10096;51.112;6.776;2023-07-29T06:21:19;20.50;1.00
19868;DHT22;10096;51.112;6.776;2023-07-29T06:23:47;20.50;1.00
19868;DHT22;10096;51.112;6.776;2023-07-29T06:26:14;20.70;99.90
19868;DHT22;10096;51.112;6.776;2023-07-29T06:28:41;20.60;99.90
19868;DHT22;10096;51.112;6.776;2023-07-29T06:31:08;20.50;99.90
19868;DHT22;10096;51.112;6.776;2023-07-29T06:33:39;20.40;99.90
19868;DHT22;10096;51.112;6.776;2023-07-29T06:36:06;20.40;99.90
19868;DHT22;10096;51.112;6.776;2023-07-29T06:38:33;20.40;99.90
19868;DHT22;10096;51.112;6.776;2023-07-29T06:41:00;20.40;99.90
19868;DHT22;10096;51.112;6.776;2023-07-29T06:43:27;20.30;99.90
19868;DHT22;10096;51.112;6.776;2023-07-29T06:45:54;20.20;1.00
19868;DHT22;10096;51.112;6.776;2023-07-29T06:48:23;20.20;1.00
19868;DHT22;10096;51.112;6.776;2023-07-29T06:50:51;20.20;1.00
19868;DHT22;10096;51.112;6.776;2023-07-29T06:53:20;20.20;1.00
19868;DHT22;10096;51.112;6.776;2023-07-29T06:55:47;20.40;1.00
19868;DHT22;10096;51.112;6.776;2023-07-29T06:58:14;20.30;1.00
19868;DHT22;10096;51.112;6.776;2023-07-29T07:00:41;20.40;1.00
19868;DHT22;10096;51.112;6.776;2023-07-29T07:03:11;20.70;1.00
19868;DHT22;10096;51.112;6.776;2023-07-29T07:05:38;20.70;1.00
19868;DHT22;10096;51.112;6.776;2023-07-29T07:08:09;21.20;99.90
19868;DHT22;10096;51.112;6.776;2023-07-29T07:10:37;21.30;99.90
19868;DHT22;10096;51.112;6.776;2023-07-29T07:13:04;21.50;99.90
19868;DHT22;10096;51.112;6.776;2023-07-29T07:15:31;21.70;99.90
19868;DHT22;10096;51.112;6.776;2023-07-29T07:17:59;22.00;18.30
19868;DHT22;10096;51.112;6.776;2023-07-29T07:20:26;22.00;1.00
19868;DHT22;10096;51.112;6.776;2023-07-29T07:22:53;22.70;1.00
19868;DHT22;10096;51.112;6.776;2023-07-29T07:25:22;22.80;1.00
19868;DHT22;10096;51.112;6.776;2023-07-29T07:27:49;23.10;1.00
19868;DHT22;10096;51.112;6.776;2023-07-29T07:30:17;23.80;1.00
19868;DHT22;10096;51.112;6.776;2023-07-29T07:32:45;25.20;1.00
19868;DHT22;10096;51.112;6.776;2023-07-29T07:35:12;26.60;99.90
19868;DHT22;10096;51.112;6.776;2023-07-29T07:37:40;26.50;99.90
19868;DHT22;10096;51.112;6.776;2023-07-29T07:40:08;26.90;99.90
19868;DHT22;10096;51.112;6.776;2023-07-29T07:42:36;27.60;99.90
19868;DHT22;10096;51.112;6.776;2023-07-29T07:45:05;27.00;99.90
19868;DHT22;10096;51.112;6.776;2023-07-29T07:47:33;26.30;99.90
19868;DHT22;10096;51.112;6.776;2023-07-29T07:50:03;25.60;99.90
19868;DHT22;10096;51.112;6.776;2023-07-29T07:52:32;25.00;99.90
19868;DHT22;10096;51.112;6.776;2023-07-29T07:55:00;24.70;99.90
19868;DHT22;10096;51.112;6.776;2023-07-29T07:57:27;24.40;99.90
19868;DHT22;10096;51.112;6.776;2023-07-29T07:59:56;24.60;99.90
19868;DHT22;10096;51.112;6.776;2023-07-29T08:02:22;24.40;99.90
19868;DHT22;10096;51.112;6.776;2023-07-29T08:04:49;24.20;99.90
19868;DHT22;10096;51.112;6.776;2023-07-29T08:07:20;24.30;99.90
19868;DHT22;10096;51.112;6.776;2023-07-29T08:09:47;25.10;99.90
19868;DHT22;10096;51.112;6.776;2023-07-29T08:12:15;26.50;99.90
19868;DHT22;10096;51.112;6.776;2023-07-29T08:14:42;27.30;99.90
19868;DHT22;10096;51.112;6.776;2023-07-29T08:17:10;27.90;99.90
19868;DHT22;10096;51.112;6.776;2023-07-29T08:19:37;28.70;99.90
19868;DHT22;10096;51.112;6.776;2023-07-29T08:22:05;29.80;99.90
19868;DHT22;10096;51.112;6.776;2023-07-29T08:24:33;30.70;99.90
19868;DHT22;10096;51.112;6.776;2023-07-29T08:27:00;31.30;99.90
19868;DHT22;10096;51.112;6.776;2023-07-29T08:29:27;31.30;99.90
19868;DHT22;10096;51.112;6.776;2023-07-29T08:31:55;30.50;99.90
19868;DHT22;10096;51.112;6.776;2023-07-29T08:34:24;29.80;99.90
19868;DHT22;10096;51.112;6.776;2023-07-29T08:36:51;29.50;99.90
19868;DHT22;10096;51.112;6.776;2023-07-29T08:39:18;29.50;99.90
19868;DHT22;10096;51.112;6.776;2023-07-29T08:41:49;29.70;99.90
19868;DHT22;10096;51.112;6.776;2023-07-29T08:44:20;29.70;99.90
19868;DHT22;10096;51.112;6.776;2023-07-29T08:46:48;29.20;99.90
19868;DHT22;10096;51.112;6.776;2023-07-29T08:49:16;28.40;99.90
19868;DHT22;10096;51.112;6.776;2023-07-29T08:51:47;27.60;99.90
19868;DHT22;10096;51.112;6.776;2023-07-29T08:54:25;26.90;99.90
19868;DHT22;10096;51.112;6.776;2023-07-29T08:56:52;26.60;99.90
19868;DHT22;10096;51.112;6.776;2023-07-29T08:59:19;26.10;99.90
19868;DHT22;10096;51.112;6.776;2023-07-29T09:01:53;25.60;99.90
19868;DHT22;10096;51.112;6.776;2023-07-29T09:04:22;25.40;99.90
19868;DHT22;10096;51.112;6.776;2023-07-29T09:06:53;25.20;99.90
19868;DHT22;10096;51.112;6.776;2023-07-29T09:09:21;24.90;99.90
19868;DHT22;10096;51.112;6.776;2023-07-29T09:11:48;24.60;99.90
19868;DHT22;10096;51.112;6.776;2023-07-29T09:14:15;24.20;99.90
19868;DHT22;10096;51.112;6.776;2023-07-29T09:16:43;24.10;99.90
19868;DHT22;10096;51.112;6.776;2023-07-29T09:19:11;24.40;99.90
19868;DHT22;10096;51.112;6.776;2023-07-29T09:21:39;24.70;99.90
19868;DHT22;10096;51.112;6.776;2023-07-29T09:24:08;24.80;99.90
19868;DHT22;10096;51.112;6.776;2023-07-29T09:26:36;24.40;99.90
19868;DHT22;10096;51.112;6.776;2023-07-29T09:29:03;24.20;99.90
19868;DHT22;10096;51.112;6.776;2023-07-29T09:31:30;23.90;99.90
19868;DHT22;10096;51.112;6.776;2023-07-29T09:33:58;24.20;99.90
19868;DHT22;10096;51.112;6.776;2023-07-29T09:36:25;24.80;99.90
19868;DHT22;10096;51.112;6.776;2023-07-29T09:38:55;24.90;99.90
19868;DHT22;10096;51.112;6.776;2023-07-29T09:41:26;24.80;99.90
19868;DHT22;10096;51.112;6.776;2023-07-29T09:43:57;24.70;99.90
19868;DHT22;10096;51.112;6.776;2023-07-29T09:46:31;24.40;99.90
19868;DHT22;10096;51.112;6.776;2023-07-29T09:48:59;24.50;99.90
19868;DHT22;10096;51.112;6.776;2023-07-29T09:51:26;24.60;99.90
19868;DHT22;10096;51.112;6.776;2023-07-29T09:53:53;24.90;99.90
19868;DHT22;10096;51.112;6.776;2023-07-29T09:56:26;24.90;99.90
19868;DHT22;10096;51.112;6.776;2023-07-29T09:58:55;25.10;99.90
19868;DHT22;10096;51.112;6.776;2023-07-29T10:01:23;25.40;99.90
19868;DHT22;10096;51.112;6.776;2023-07-29T10:03:50;25.60;99.90
19868;DHT22;10096;51.112;6.776;2023-07-29T10:06:18;25.70;99.90
19868;DHT22;10096;51.112;6.776;2023-07-29T10:08:45;25.80;99.90
19868;DHT22;10096;51.112;6.776;2023-07-29T10:11:14;25.80;99.90
19868;DHT22;10096;51.112;6.776;2023-07-29T10:13:47;25.50;99.90
19868;DHT22;10096;51.112;6.776;2023-07-29T10:16:15;25.40;99.90
19868;DHT22;10096;51.112;6.776;2023-07-29T10:18:42;25.50;99.90
19868;DHT22;10096;51.112;6.776;2023-07-29T10:21:11;25.40;99.90
19868;DHT22;10096;51.112;6.776;2023-07-29T10:23:43;25.00;99.90
19868;DHT22;10096;51.112;6.776;2023-07-29T10:26:14;24.90;99.90
19868;DHT22;10096;51.112;6.776;2023-07-29T10:28:48;24.90;99.90
19868;DHT22;10096;51.112;6.776;2023-07-29T10:31:19;24.90;99.90
19868;DHT22;10096;51.112;6.776;2023-07-29T10:33:48;25.00;99.90
19868;DHT22;10096;51.112;6.776;2023-07-29T10:36:15;24.60;99.90
19868;DHT22;10096;51.112;6.776;2023-07-29T10:38:42;24.50;99.90
19868;DHT22;10096;51.112;6.776;2023-07-29T10:41:09;24.50;99.90
19868;DHT22;10096;51.112;6.776;2023-07-29T10:43:37;24.40;99.90
19868;DHT22;10096;51.112;6.776;2023-07-29T10:46:19;24.50;99.90
19868;DHT22;10096;51.112;6.776;2023-07-29T10:48:53;24.50;99.90
19868;DHT22;10096;51.112;6.776;2023-07-29T10:51:28;24.60;99.90
19868;DHT22;10096;51.112;6.776;2023-07-29T10:54:01;24.80;99.90
19868;DHT22;10096;51.112;6.776;2023-07-29T10:56:29;25.00;99.90
19868;DHT22;10096;51.112;6.776;2023-07-29T10:58:58;25.40;99.90
19868;DHT22;10096;51.112;6.776;2023-07-29T11:01:30;25.90;99.90
19868;DHT22;10096;51.112;6.776;2023-07-29T11:04:23;26.00;99.90
19868;DHT22;10096;51.112;6.776;2023-07-29T11:07:19;25.80;99.90
19868;DHT22;10096;51.112;6.776;2023-07-29T11:09:58;25.90;99.90
19868;DHT22;10096;51.112;6.776;2023-07-29T11:12:41;26.00;99.90
19868;DHT22;10096;51.112;6.776;2023-07-29T11:15:17;26.50;99.90
19868;DHT22;10096;51.112;6.776;2023-07-29T11:17:48;25.70;99.90
19868;DHT22;10096;51.112;6.776;2023-07-29T11:20:16;25.80;99.90
19868;DHT22;10096;51.112;6.776;2023-07-29T11:22:43;25.50;99.90
19868;DHT22;10096;51.112;6.776;2023-07-29T11:25:13;25.30;99.90
19868;DHT22;10096;51.112;6.776;2023-07-29T11:27:40;25.20;99.90
19868;DHT22;10096;51.112;6.776;2023-07-29T11:30:09;25.30;99.90
19868;DHT22;10096;51.112;6.776;2023-07-29T11:32:38;25.70;99.90
19868;DHT22;10096;51.112;6.776;2023-07-29T11:35:08;25.90;99.90
19868;DHT22;10096;51.112;6.776;2023-07-29T11:37:37;25.80;99.90
19868;DHT22;10096;51.112;6.776;2023-07-29T11:40:07;25.80;99.90
19868;DHT22;10096;51.112;6.776;2023-07-29T11:42:36;25.60;99.90
19868;DHT22;10096;51.112;6.776;2023-07-29T11:45:07;25.40;99.90
19868;DHT22;10096;51.112;6.776;2023-07-29T11:47:35;25.30;99.90
19868;DHT22;10096;51.112;6.776;2023-07-29T11:50:03;25.00;99.90
19868;DHT22;10096;51.112;6.776;2023-07-29T11:52:33;24.90;99.90
19868;DHT22;10096;51.112;6.776;2023-07-29T11:55:00;25.40;99.90
19868;DHT22;10096;51.112;6.776;2023-07-29T11:57:29;26.20;99.90
19868;DHT22;10096;51.112;6.776;2023-07-29T11:59:56;26.70;99.90
19868;DHT22;10096;51.112;6.776;2023-07-29T12:02:23;26.50;99.90
19868;DHT22;10096;51.112;6.776;2023-07-29T12:04:51;26.40;99.90
19868;DHT22;10096;51.112;6.776;2023-07-29T12:07:19;26.60;99.90
19868;DHT22;10096;51.112;6.776;2023-07-29T12:09:49;26.40;99.90
19868;DHT22;10096;51.112;6.776;2023-07-29T12:12:16;25.90;99.90
19868;DHT22;10096;51.112;6.776;2023-07-29T12:14:44;26.50;99.90
19868;DHT22;10096;51.112;6.776;2023-07-29T12:17:14;27.00;99.90
19868;DHT22;10096;51.112;6.776;2023-07-29T12:19:42;27.00;99.90
19868;DHT22;10096;51.112;6.776;2023-07-29T12:22:10;26.90;99.90
19868;DHT22;10096;51.112;6.776;2023-07-29T12:24:39;26.60;99.90
19868;DHT22;10096;51.112;6.776;2023-07-29T12:27:12;26.40;99.90
19868;DHT22;10096;51.112;6.776;2023-07-29T12:29:40;26.50;99.90
19868;DHT22;10096;51.112;6.776;2023-07-29T12:32:09;26.20;99.90
19868;DHT22;10096;51.112;6.776;2023-07-29T12:34:37;26.00;99.90
19868;DHT22;10096;51.112;6.776;2023-07-29T12:37:05;25.90;99.90
19868;DHT22;10096;51.112;6.776;2023-07-29T12:39:40;26.10;99.90
19868;DHT22;10096;51.112;6.776;2023-07-29T12:42:07;26.30;99.90
19868;DHT22;10096;51.112;6.776;2023-07-29T12:44:37;26.40;99.90
19868;DHT22;10096;51.112;6.776;2023-07-29T12:47:05;25.80;99.90
19868;DHT22;10096;51.112;6.776;2023-07-29T12:49:34;25.60;99.90
19868;DHT22;10096;51.112;6.776;2023-07-29T12:52:03;25.40;99.90
19868;DHT22;10096;51.112;6.776;2023-07-29T12:54:30;25.40;99.90
19868;DHT22;10096;51.112;6.776;2023-07-29T12:56:58;25.20;99.90
19868;DHT22;10096;51.112;6.776;2023-07-29T12:59:25;25.40;99.90
19868;DHT22;10096;51.112;6.776;2023-07-29T13:01:53;25.60;99.90
19868;DHT22;10096;51.112;6.776;2023-07-29T13:04:22;25.60;99.90
19868;DHT22;10096;51.112;6.776;2023-07-29T13:06:49;25.80;99.90
19868;DHT22;10096;51.112;6.776;2023-07-29T13:09:17;26.00;99.90
19868;DHT22;10096;51.112;6.776;2023-07-29T13:11:44;25.90;99.90
19868;DHT22;10096;51.112;6.776;2023-07-29T13:14:11;25.90;99.90
19868;DHT22;10096;51.112;6.776;2023-07-29T13:16:38;25.70;99.90
19868;DHT22;10096;51.112;6.776;2023-07-29T13:19:06;25.50;99.90
19868;DHT22;10096;51.112;6.776;2023-07-29T13:21:33;25.40;99.90
19868;DHT22;10096;51.112;6.776;2023-07-29T13:24:00;25.50;99.90
19868;DHT22;10096;51.112;6.776;2023-07-29T13:26:28;25.50;99.90
19868;DHT22;10096;51.112;6.776;2023-07-29T13:28:55;25.30;99.90
19868;DHT22;10096;51.112;6.776;2023-07-29T13:31:22;25.30;99.90
19868;DHT22;10096;51.112;6.776;2023-07-29T13:33:49;25.00;99.90
19868;DHT22;10096;51.112;6.776;2023-07-29T13:36:18;24.90;99.90
19868;DHT22;10096;51.112;6.776;2023-07-29T13:38:45;24.70;99.90
19868;DHT22;10096;51.112;6.776;2023-07-29T13:41:12;24.50;99.90
19868;DHT22;10096;51.112;6.776;2023-07-29T13:43:39;24.60;99.90
19868;DHT22;10096;51.112;6.776;2023-07-29T13:46:08;24.70;99.90
19868;DHT22;10096;51.112;6.776;2023-07-29T13:48:36;24.80;99.90
19868;DHT22;10096;51.112;6.776;2023-07-29T13:51:03;24.60;1.00
19868;DHT22;10096;51.112;6.776;2023-07-29T13:53:31;24.30;1.00
19868;DHT22;10096;51.112;6.776;2023-07-29T13:55:58;23.90;1.00
19868;DHT22;10096;51.112;6.776;2023-07-29T13:58:27;23.60;1.00
19868;DHT22;10096;51.112;6.776;2023-07-29T14:00:54;23.60;1.00
19868;DHT22;10096;51.112;6.776;2023-07-29T14:03:24;23.50;1.00
19868;DHT22;10096;51.112;6.776;2023-07-29T14:05:52;23.50;1.00
19868;DHT22;10096;51.112;6.776;2023-07-29T14:08:18;23.50;1.00
19868;DHT22;10096;51.112;6.776;2023-07-29T14:10:47;23.60;1.00
19868;DHT22;10096;51.112;6.776;2023-07-29T14:13:18;23.80;1.00
19868;DHT22;10096;51.112;6.776;2023-07-29T14:15:46;24.30;1.00
19868;DHT22;10096;51.112;6.776;2023-07-29T14:18:13;24.50;1.00
19868;DHT22;10096;51.112;6.776;2023-07-29T14:20:41;24.80;1.00
19868;DHT22;10096;51.112;6.776;2023-07-29T14:23:08;24.90;1.00
19868;DHT22;10096;51.112;6.776;2023-07-29T14:25:36;25.00;1.00
19868;DHT22;10096;51.112;6.776;2023-07-29T14:28:05;25.20;1.00
19868;DHT22;10096;51.112;6.776;2023-07-29T14:30:32;25.50;1.00
19868;DHT22;10096;51.112;6.776;2023-07-29T14:33:01;25.60;1.00
19868;DHT22;10096;51.112;6.776;2023-07-29T14:35:28;25.70;99.90
19868;DHT22;10096;51.112;6.776;2023-07-29T14:37:55;25.50;99.90
19868;DHT22;10096;51.112;6.776;2023-07-29T14:40:22;25.40;99.90
19868;DHT22;10096;51.112;6.776;2023-07-29T14:42:49;25.30;99.90
19868;DHT22;10096;51.112;6.776;2023-07-29T14:45:18;25.20;99.90
19868;DHT22;10096;51.112;6.776;2023-07-29T14:47:45;25.20;1.00
19868;DHT22;10096;51.112;6.776;2023-07-29T14:50:12;25.20;1.00
19868;DHT22;10096;51.112;6.776;2023-07-29T14:52:39;25.10;1.00
19868;DHT22;10096;51.112;6.776;2023-07-29T14:55:06;25.30;1.00
19868;DHT22;10096;51.112;6.776;2023-07-29T14:57:33;25.40;1.00
19868;DHT22;10096;51.112;6.776;2023-07-29T15:00:01;25.60;1.00
19868;DHT22;10096;51.112;6.776;2023-07-29T15:02:30;25.70;99.90
19868;DHT22;10096;51.112;6.776;2023-07-29T15:04:57;25.60;99.90
19868;DHT22;10096;51.112;6.776;2023-07-29T15:07:25;25.50;99.90
19868;DHT22;10096;51.112;6.776;2023-07-29T15:09:53;25.20;99.90
19868;DHT22;10096;51.112;6.776;2023-07-29T15:12:20;25.10;99.90
19868;DHT22;10096;51.112;6.776;2023-07-29T15:14:47;25.50;99.90
19868;DHT22;10096;51.112;6.776;2023-07-29T15:17:21;25.30;99.90
19868;DHT22;10096;51.112;6.776;2023-07-29T15:19:49;25.50;99.90
19868;DHT22;10096;51.112;6.776;2023-07-29T15:22:17;25.40;99.90
19868;DHT22;10096;51.112;6.776;2023-07-29T15:24:44;24.80;99.90
19868;DHT22;10096;51.112;6.776;2023-07-29T15:27:12;24.50;99.90
19868;DHT22;10096;51.112;6.776;2023-07-29T15:29:40;24.50;99.90
19868;DHT22;10096;51.112;6.776;2023-07-29T15:32:07;24.40;99.90
19868;DHT22;10096;51.112;6.776;2023-07-29T15:34:36;24.40;99.90
19868;DHT22;10096;51.112;6.776;2023-07-29T15:37:05;24.80;99.90
19868;DHT22;10096;51.112;6.776;2023-07-29T15:39:32;24.90;99.90
19868;DHT22;10096;51.112;6.776;2023-07-29T15:41:59;24.80;99.90